createdAt,value
2022-11-17T00:00:41.837Z,7.18
2022-11-17T00:03:14.648Z,8.52
2022-11-17T00:05:41.387Z,8.55
2022-11-17T00:08:08.162Z,7.97
2022-11-17T00:10:34.939Z,7.88
2022-11-17T00:13:20.123Z,8.10
2022-11-17T00:15:47.082Z,8.32
2022-11-17T00:18:32.669Z,8.88
2022-11-17T00:21:23.587Z,7.22
2022-11-17T00:23:50.962Z,7.40
2022-11-17T00:26:22.003Z,7.25
2022-11-17T00:29:00.659Z,8.35
2022-11-17T00:31:49.706Z,8.10
2022-11-17T00:34:22.334Z,7.88
2022-11-17T00:36:52.598Z,7.30
2022-11-17T00:39:22.352Z,7.80
2022-11-17T00:41:49.712Z,7.75
2022-11-17T00:44:16.936Z,7.50
2022-11-17T00:46:44.057Z,7.63
2022-11-17T00:49:12.201Z,7.35
2022-11-17T00:51:39.281Z,8.38
2022-11-17T00:54:10.791Z,7.85
2022-11-17T00:56:37.684Z,7.30
2022-11-17T00:59:04.783Z,7.97
2022-11-17T01:01:32.149Z,7.40
2022-11-17T01:04:03.506Z,7.95
2022-11-17T01:06:33.364Z,7.47
2022-11-17T01:09:02.645Z,7.18
2022-11-17T01:11:29.434Z,6.95
2022-11-17T01:14:00.484Z,7.43
2022-11-17T01:16:28.866Z,7.35
2022-11-17T01:18:55.600Z,6.47
2022-11-17T01:21:25.290Z,6.93
2022-11-17T01:23:56.174Z,6.93
2022-11-17T01:26:28.025Z,6.78
2022-11-17T01:28:56.352Z,7.22
2022-11-17T01:31:28.155Z,7.25
2022-11-17T01:33:55.700Z,6.72
2022-11-17T01:36:56.984Z,7.10
2022-11-17T01:39:26.173Z,7.10
2022-11-17T01:41:54.528Z,6.47
2022-11-17T01:44:54.991Z,7.55
2022-11-17T01:47:42.021Z,6.63
2022-11-17T01:50:37.518Z,7.40
2022-11-17T01:53:10.586Z,6.70
2022-11-17T01:56:01.183Z,6.13
2022-11-17T01:58:34.874Z,6.47
2022-11-17T02:01:02.073Z,6.72
2022-11-17T02:03:33.206Z,6.97
2022-11-17T02:06:05.986Z,6.82
2022-11-17T02:08:35.809Z,7.38
2022-11-17T02:11:10.145Z,6.40
2022-11-17T02:13:39.386Z,6.38
2022-11-17T02:16:14.579Z,6.72
2022-11-17T02:18:43.747Z,6.70
2022-11-17T02:21:47.088Z,6.53
2022-11-17T02:25:04.632Z,6.60
2022-11-17T02:27:50.777Z,6.80
2022-11-17T02:30:21.564Z,7.25
2022-11-17T02:33:02.747Z,6.60
2022-11-17T02:35:56.160Z,6.88
2022-11-17T02:38:41.537Z,6.38
2022-11-17T02:41:23.050Z,7.28
2022-11-17T02:44:12.198Z,6.88
2022-11-17T02:46:51.188Z,6.90
2022-11-17T02:49:29.352Z,7.25
2022-11-17T02:51:59.536Z,6.75
2022-11-17T02:54:30.744Z,6.63
2022-11-17T02:56:57.943Z,7.78
2022-11-17T02:59:41.247Z,7.07
2022-11-17T03:02:39.350Z,7.00
2022-11-17T03:05:52.441Z,7.38
2022-11-17T03:08:34.107Z,6.80
2022-11-17T03:11:08.169Z,7.40
2022-11-17T03:17:05.541Z,7.00
2022-11-17T03:19:44.516Z,7.38
2022-11-17T03:22:43.819Z,7.75
2022-11-17T03:25:18.900Z,6.63
2022-11-17T03:27:53.304Z,7.95
2022-11-17T03:30:22.318Z,7.28
2022-11-17T03:32:55.234Z,7.40
2022-11-17T03:35:28.983Z,6.97
2022-11-17T03:38:03.871Z,6.90
2022-11-17T03:40:35.819Z,5.93
2022-11-17T03:43:08.000Z,7.18
2022-11-17T03:45:39.423Z,6.40
2022-11-17T03:48:21.053Z,7.15
2022-11-17T03:51:12.775Z,6.68
2022-11-17T03:53:40.288Z,6.65
2022-11-17T03:56:28.278Z,6.88
2022-11-17T03:59:02.536Z,6.50
2022-11-17T04:01:33.453Z,7.55
2022-11-17T04:04:00.560Z,7.22
2022-11-17T04:06:27.398Z,7.43
2022-11-17T04:08:54.213Z,6.93
2022-11-17T04:11:39.853Z,7.38
2022-11-17T04:14:25.448Z,7.60
2022-11-17T04:16:52.185Z,7.55
2022-11-17T04:19:18.936Z,7.03
2022-11-17T04:21:45.658Z,7.30
2022-11-17T04:24:12.473Z,7.22
2022-11-17T04:26:57.625Z,7.28
2022-11-17T04:29:24.348Z,7.07
2022-11-17T04:31:51.055Z,8.02
2022-11-17T04:34:17.780Z,7.93
2022-11-17T04:36:44.536Z,6.88
2022-11-17T04:39:15.846Z,7.55
2022-11-17T04:42:02.048Z,6.80
2022-11-17T04:44:31.380Z,6.82
2022-11-17T04:46:58.762Z,6.90
2022-11-17T04:49:26.362Z,8.93
2022-11-17T04:51:53.599Z,7.28
2022-11-17T04:54:26.637Z,6.93
2022-11-17T04:56:54.857Z,6.77
2022-11-17T04:59:22.105Z,8.25
2022-11-17T05:01:49.433Z,7.65
2022-11-17T05:04:39.450Z,8.18
2022-11-17T05:07:07.899Z,7.95
2022-11-17T05:09:34.813Z,7.30
2022-11-17T05:12:20.097Z,8.00
2022-11-17T05:14:49.055Z,7.60
2022-11-17T05:17:16.809Z,7.43
2022-11-17T05:19:46.459Z,8.52
2022-11-17T05:22:36.266Z,8.50
2022-11-17T05:25:04.677Z,8.07
2022-11-17T05:27:33.323Z,8.23
2022-11-17T05:30:01.840Z,8.45
2022-11-17T05:32:28.574Z,7.55
2022-11-17T05:34:55.291Z,7.60
2022-11-17T05:37:22.011Z,8.27
2022-11-17T05:39:48.740Z,8.77
2022-11-17T05:42:15.465Z,8.25
2022-11-17T05:44:42.194Z,7.97
2022-11-17T05:47:08.959Z,8.88
2022-11-17T05:49:35.884Z,7.80
2022-11-17T05:52:02.569Z,8.05
2022-11-17T05:54:29.298Z,7.68
2022-11-17T05:57:09.378Z,7.85
2022-11-17T05:59:45.567Z,8.10
2022-11-17T06:02:24.707Z,8.05
2022-11-17T06:04:52.196Z,8.50
2022-11-17T06:07:20.123Z,8.68
2022-11-17T06:09:47.682Z,8.07
2022-11-17T06:12:15.321Z,8.43
2022-11-17T06:14:42.599Z,9.05
2022-11-17T06:17:39.185Z,8.50
2022-11-17T06:20:26.093Z,8.77
2022-11-17T06:22:53.010Z,8.70
2022-11-17T06:25:20.691Z,8.05
2022-11-17T06:27:50.518Z,8.57
2022-11-17T06:30:18.397Z,8.65
2022-11-17T06:32:46.830Z,8.65
2022-11-17T06:35:16.363Z,8.55
2022-11-17T06:37:43.626Z,8.82
2022-11-17T06:40:11.644Z,8.35
2022-11-17T06:42:59.721Z,7.82
2022-11-17T06:45:26.522Z,8.13
2022-11-17T06:47:53.851Z,8.57
2022-11-17T06:50:20.956Z,7.53
2022-11-17T06:52:47.759Z,8.25
2022-11-17T06:55:14.762Z,8.48
2022-11-17T06:57:41.541Z,8.45
2022-11-17T07:00:09.546Z,10.32
2022-11-17T07:02:37.140Z,9.13
2022-11-17T07:05:04.804Z,8.77
2022-11-17T07:07:31.605Z,7.63
2022-11-17T07:09:58.422Z,8.98
2022-11-17T07:12:25.207Z,8.93
2022-11-17T07:14:51.896Z,8.57
2022-11-17T07:17:18.613Z,8.48
2022-11-17T07:19:45.322Z,8.93
2022-11-17T07:22:12.051Z,8.27
2022-11-17T07:24:38.910Z,8.43
2022-11-17T07:27:06.554Z,8.52
2022-11-17T07:29:33.359Z,8.23
2022-11-17T07:32:00.125Z,8.52
2022-11-17T07:34:26.906Z,8.30
2022-11-17T07:36:53.675Z,9.02
2022-11-17T07:39:21.884Z,8.50
2022-11-17T07:41:48.964Z,8.63
2022-11-17T07:44:15.707Z,8.35
2022-11-17T07:46:42.445Z,9.07
2022-11-17T07:49:09.174Z,8.75
2022-11-17T07:51:36.044Z,7.90
2022-11-17T07:54:02.795Z,7.85
2022-11-17T07:56:29.573Z,8.40
2022-11-17T07:58:56.322Z,8.07
2022-11-17T08:01:23.104Z,8.60
2022-11-17T08:03:49.956Z,10.23
2022-11-17T08:06:17.007Z,9.30
2022-11-17T08:08:43.774Z,9.23
2022-11-17T08:11:12.778Z,9.05
2022-11-17T08:13:41.120Z,9.27
2022-11-17T08:16:10.832Z,8.20
2022-11-17T08:18:39.190Z,8.45
2022-11-17T08:21:14.876Z,8.95
2022-11-17T08:23:42.107Z,8.75
2022-11-17T08:26:11.516Z,8.60
2022-11-17T08:28:38.864Z,8.25
2022-11-17T08:31:07.786Z,7.97
2022-11-17T08:33:34.675Z,8.50
2022-11-17T08:36:03.162Z,7.82
2022-11-17T08:38:31.434Z,8.52
2022-11-17T08:41:02.626Z,8.02
2022-11-17T08:43:30.565Z,8.35
2022-11-17T08:45:57.399Z,8.27
2022-11-17T08:48:24.556Z,9.13
2022-11-17T08:50:52.231Z,9.73
2022-11-17T08:53:22.025Z,8.80
2022-11-17T08:55:49.554Z,9.15
2022-11-17T08:58:16.599Z,8.45
2022-11-17T09:00:45.371Z,9.27
2022-11-17T09:03:12.272Z,9.27
2022-11-17T09:05:42.773Z,9.50
2022-11-17T09:08:43.523Z,10.52
2022-11-17T09:10:58.151Z,9.82
2022-11-17T09:13:25.178Z,9.60
2022-11-17T09:15:51.929Z,9.18
2022-11-17T09:18:18.658Z,9.63
2022-11-17T09:20:46.263Z,9.75
2022-11-17T09:23:13.235Z,9.60
2022-11-17T09:25:40.008Z,8.70
2022-11-17T09:28:06.805Z,9.48
2022-11-17T09:30:33.884Z,10.00
2022-11-17T09:33:00.803Z,10.55
2022-11-17T09:35:27.821Z,10.75
2022-11-17T09:38:00.660Z,10.88
2022-11-17T09:40:33.219Z,10.48
2022-11-17T09:43:20.204Z,10.05
2022-11-17T09:45:48.940Z,10.98
2022-11-17T09:48:40.724Z,11.27
2022-11-17T09:51:16.759Z,10.63
2022-11-17T09:53:55.768Z,10.55
2022-11-17T09:56:22.576Z,10.23
2022-11-17T09:58:56.788Z,11.18
2022-11-17T10:01:24.338Z,11.52
2022-11-17T10:03:51.525Z,11.23
2022-11-17T10:06:44.549Z,10.80
2022-11-17T10:09:36.516Z,11.05
2022-11-17T10:12:21.224Z,11.18
2022-11-17T10:14:52.163Z,12.02
2022-11-17T10:17:18.889Z,12.35
2022-11-17T10:19:46.143Z,11.32
2022-11-17T10:22:33.266Z,10.82
2022-11-17T10:25:00.092Z,11.18
2022-11-17T10:27:33.822Z,10.57
2022-11-17T10:32:32.834Z,9.20
2022-11-17T10:35:27.609Z,10.13
2022-11-17T10:38:20.773Z,10.13
2022-11-17T10:40:51.461Z,9.60
2022-11-17T10:43:30.062Z,9.50
2022-11-17T10:46:05.018Z,9.10
2022-11-17T10:48:38.765Z,9.07
2022-11-17T10:51:21.103Z,9.65
2022-11-17T10:54:06.616Z,9.05
2022-11-17T10:56:42.506Z,10.38
2022-11-17T10:59:16.946Z,10.52
2022-11-17T11:01:50.779Z,9.85
2022-11-17T11:04:39.445Z,10.30
2022-11-17T11:07:22.865Z,11.02
2022-11-17T11:10:14.270Z,9.93
2022-11-17T11:13:29.465Z,10.82
2022-11-17T11:18:23.313Z,9.52
2022-11-17T11:21:05.232Z,8.90
2022-11-17T11:24:01.894Z,10.13
2022-11-17T11:26:34.328Z,9.25
2022-11-17T11:29:57.190Z,8.45
2022-11-17T11:32:41.265Z,9.27
2022-11-17T11:35:58.105Z,9.05
2022-11-17T11:39:02.305Z,9.52
2022-11-17T11:41:56.912Z,9.23
2022-11-17T11:47:45.809Z,7.57
2022-11-17T11:50:26.792Z,8.15
2022-11-17T11:53:31.022Z,7.93
2022-11-17T11:56:14.885Z,8.52
2022-11-17T11:58:58.965Z,8.80
2022-11-17T12:01:31.259Z,8.50
2022-11-17T12:04:30.578Z,9.30
2022-11-17T12:07:41.312Z,8.05
2022-11-17T12:10:39.382Z,9.23
2022-11-17T12:13:11.090Z,8.82
2022-11-17T12:15:38.081Z,8.23
2022-11-17T12:18:31.482Z,8.90
2022-11-17T12:21:06.136Z,7.97
2022-11-17T12:24:14.686Z,8.30
2022-11-17T12:26:41.806Z,8.55
2022-11-17T12:29:21.231Z,8.77
2022-11-17T12:31:54.112Z,8.00
2022-11-17T12:35:29.029Z,8.93
2022-11-17T12:38:15.252Z,8.50
2022-11-17T12:40:48.108Z,8.23
2022-11-17T12:43:14.800Z,8.35
2022-11-17T12:46:20.428Z,8.40
2022-11-17T12:49:06.767Z,9.13
2022-11-17T12:51:54.448Z,8.63
2022-11-17T12:55:02.583Z,9.05
2022-11-17T12:57:33.517Z,7.75
2022-11-17T13:00:14.745Z,8.82
2022-11-17T13:03:12.090Z,7.90
2022-11-17T13:05:38.832Z,8.07
2022-11-17T13:08:23.502Z,7.82
2022-11-17T13:10:51.184Z,9.27
2022-11-17T13:13:21.957Z,9.27
2022-11-17T13:15:52.471Z,8.73
2022-11-17T13:18:41.899Z,8.55
2022-11-17T13:21:29.740Z,8.30
2022-11-17T13:23:58.988Z,8.65
2022-11-17T13:26:35.948Z,8.27
2022-11-17T13:29:18.283Z,7.55
2022-11-17T13:31:46.195Z,8.32
2022-11-17T13:34:13.484Z,8.00
2022-11-17T13:37:00.737Z,8.23
2022-11-17T13:39:28.707Z,8.80
2022-11-17T13:41:57.982Z,8.38
2022-11-17T13:44:28.277Z,8.90
2022-11-17T13:46:56.088Z,9.05
2022-11-17T13:49:37.968Z,9.05
2022-11-17T13:52:32.511Z,8.68
2022-11-17T13:55:01.878Z,8.88
2022-11-17T13:57:30.479Z,9.50
2022-11-17T14:00:00.002Z,8.55
2022-11-17T14:02:29.519Z,8.15
2022-11-17T14:05:23.535Z,8.73
2022-11-17T14:07:51.141Z,8.25
2022-11-17T14:10:21.002Z,8.27
2022-11-17T14:12:50.185Z,8.18
2022-11-17T14:15:29.674Z,8.98
2022-11-17T14:18:05.350Z,8.40
2022-11-17T14:20:36.014Z,9.00
2022-11-17T14:23:23.061Z,8.80
2022-11-17T14:25:51.276Z,8.70
2022-11-17T14:28:23.008Z,8.43
2022-11-17T14:30:56.139Z,8.35
2022-11-17T14:33:23.902Z,9.23
2022-11-17T14:35:58.660Z,8.38
2022-11-17T14:38:25.717Z,9.35
2022-11-17T14:40:53.494Z,8.25
2022-11-17T14:43:21.921Z,8.38
2022-11-17T14:45:51.894Z,9.20
2022-11-17T14:48:20.141Z,8.88
2022-11-17T14:50:47.790Z,8.73
2022-11-17T14:53:14.939Z,10.25
2022-11-17T14:55:41.691Z,9.25
2022-11-17T14:58:09.882Z,9.85
2022-11-17T15:00:37.231Z,8.75
2022-11-17T15:05:46.297Z,8.57
2022-11-17T15:08:14.215Z,9.07
2022-11-17T15:10:45.491Z,9.57
2022-11-17T15:13:12.444Z,10.13
2022-11-17T15:15:39.235Z,10.25
2022-11-17T15:18:06.536Z,9.65
2022-11-17T15:20:33.307Z,10.90
2022-11-17T15:23:03.268Z,10.95
2022-11-17T15:25:30.658Z,10.82
2022-11-17T15:27:57.422Z,10.57
2022-11-17T15:30:24.247Z,11.65
2022-11-17T15:32:51.130Z,11.13
2022-11-17T15:35:18.085Z,10.15
2022-11-17T15:37:44.885Z,10.32
2022-11-17T15:40:16.391Z,10.18
2022-11-17T15:42:46.068Z,10.57
2022-11-17T15:45:13.500Z,11.20
2022-11-17T15:47:40.249Z,11.43
2022-11-17T15:50:08.005Z,10.70
2022-11-17T15:53:02.298Z,10.80
2022-11-17T15:55:21.761Z,11.38
2022-11-17T15:57:48.459Z,12.25
2022-11-17T16:00:17.400Z,11.75
2022-11-17T16:02:44.176Z,12.00
2022-11-17T16:05:11.296Z,11.35
2022-11-17T16:07:39.795Z,12.20
2022-11-17T16:10:06.822Z,11.15
2022-11-17T16:12:33.562Z,10.57
2022-11-17T16:15:00.420Z,11.07
2022-11-17T16:17:27.190Z,11.80
2022-11-17T16:19:53.966Z,11.00
2022-11-17T16:22:20.670Z,10.45
2022-11-17T16:24:47.433Z,10.85
2022-11-17T16:27:14.177Z,11.50
2022-11-17T16:29:41.116Z,10.75
2022-11-17T16:32:08.387Z,10.85
2022-11-17T16:34:36.259Z,10.65
2022-11-17T16:37:03.012Z,11.10
2022-11-17T16:39:29.778Z,10.27
2022-11-17T16:41:56.561Z,11.52
2022-11-17T16:44:23.318Z,10.05
2022-11-17T16:46:50.156Z,10.95
2022-11-17T16:49:19.123Z,9.45
2022-11-17T16:51:52.560Z,9.68
2022-11-17T16:54:20.616Z,10.20
2022-11-17T16:56:47.670Z,9.57
2022-11-17T16:59:16.210Z,9.73
2022-11-17T17:01:43.342Z,10.02
2022-11-17T17:04:12.240Z,10.93
2022-11-17T17:06:43.004Z,10.82
2022-11-17T17:09:14.408Z,10.32
2022-11-17T17:11:41.659Z,10.48
2022-11-17T17:14:12.866Z,10.88
2022-11-17T17:16:40.143Z,10.80
2022-11-17T17:19:09.928Z,11.88
2022-11-17T17:21:39.269Z,10.75
2022-11-17T17:24:06.904Z,10.68
2022-11-17T17:26:35.023Z,11.27
2022-11-17T17:29:04.656Z,10.43
2022-11-17T17:31:35.802Z,11.18
2022-11-17T17:34:04.247Z,10.65
2022-11-17T17:36:31.854Z,10.45
2022-11-17T17:39:01.978Z,10.93
2022-11-17T17:41:37.502Z,12.10
2022-11-17T17:44:07.329Z,11.02
2022-11-17T17:46:38.828Z,12.57
2022-11-17T17:49:06.800Z,12.00
2022-11-17T17:51:39.946Z,11.52
2022-11-17T17:54:07.698Z,12.27
2022-11-17T17:56:34.860Z,14.07
2022-11-17T17:59:01.820Z,12.95
2022-11-17T18:01:33.171Z,12.10
2022-11-17T18:04:04.806Z,13.82
2022-11-17T18:06:40.186Z,13.02
2022-11-17T18:09:10.482Z,14.60
2022-11-17T18:11:37.474Z,13.68
2022-11-17T18:14:04.609Z,13.90
2022-11-17T18:16:33.718Z,13.85
2022-11-17T18:19:04.164Z,13.65
2022-11-17T18:21:31.686Z,13.73
2022-11-17T18:24:01.166Z,13.35
2022-11-17T18:26:37.848Z,14.07
2022-11-17T18:29:08.113Z,14.95
2022-11-17T18:31:37.774Z,14.88
2022-11-17T18:34:21.085Z,13.90
2022-11-17T18:36:53.783Z,13.43
2022-11-17T18:39:21.311Z,13.55
2022-11-17T18:41:48.383Z,14.38
2022-11-17T18:44:19.293Z,15.10
2022-11-17T18:46:46.820Z,14.27
2022-11-17T18:49:14.188Z,13.85
2022-11-17T18:51:41.153Z,14.95
2022-11-17T18:54:08.069Z,14.25
2022-11-17T18:56:37.314Z,13.52
2022-11-17T18:59:11.365Z,13.80
2022-11-17T19:01:41.414Z,13.90
2022-11-17T19:04:08.608Z,13.85
2022-11-17T19:06:36.156Z,13.45
2022-11-17T19:09:04.582Z,13.40
2022-11-17T19:11:32.938Z,14.52
2022-11-17T19:14:05.342Z,13.57
2022-11-17T19:16:33.167Z,12.77
2022-11-17T19:19:00.447Z,13.52
2022-11-17T19:21:30.865Z,13.63
2022-11-17T19:24:00.742Z,12.70
2022-11-17T19:26:34.588Z,14.45
2022-11-17T19:29:05.365Z,14.50
2022-11-17T19:31:33.537Z,14.05
2022-11-17T19:34:00.410Z,14.27
2022-11-17T19:36:30.481Z,14.02
2022-11-17T19:39:00.641Z,14.50
2022-11-17T19:41:34.898Z,13.85
2022-11-17T19:44:05.342Z,14.95
2022-11-17T19:46:33.321Z,14.40
2022-11-17T19:49:00.051Z,15.65
2022-11-17T19:51:31.311Z,16.15
2022-11-17T19:54:02.078Z,16.45
2022-11-17T19:56:29.266Z,14.77
2022-11-17T19:58:56.028Z,15.93
2022-11-17T20:01:28.524Z,15.82
2022-11-17T20:03:57.375Z,16.25
2022-11-17T20:06:27.949Z,14.98
2022-11-17T20:08:58.185Z,14.88
2022-11-17T20:11:28.343Z,16.10
2022-11-17T20:13:56.061Z,15.95
2022-11-17T20:16:26.142Z,15.48
2022-11-17T20:18:59.218Z,14.63
2022-11-17T20:21:27.560Z,15.33
2022-11-17T20:23:55.724Z,15.20
2022-11-17T20:26:29.320Z,15.95
2022-11-17T20:28:58.527Z,15.63
2022-11-17T20:31:32.252Z,16.48
2022-11-17T20:34:01.335Z,16.98
2022-11-17T20:36:31.141Z,16.30
2022-11-17T20:39:01.813Z,15.20
2022-11-17T20:41:29.865Z,16.80
2022-11-17T20:43:59.616Z,16.48
2022-11-17T20:46:27.675Z,16.65
2022-11-17T20:48:55.002Z,16.42
2022-11-17T20:51:24.453Z,14.75
2022-11-17T20:53:51.555Z,14.27
2022-11-17T20:56:19.436Z,14.60
2022-11-17T20:58:46.972Z,16.02
2022-11-17T21:01:23.984Z,15.52
2022-11-17T21:03:51.197Z,14.35
2022-11-17T21:06:19.743Z,15.13
2022-11-17T21:08:47.072Z,14.55
2022-11-17T21:11:36.650Z,14.60
2022-11-17T21:14:09.759Z,15.35
2022-11-17T21:16:39.073Z,13.53
2022-11-17T21:19:05.788Z,13.27
2022-11-17T21:21:32.731Z,12.77
2022-11-17T21:23:59.834Z,13.48
2022-11-17T21:26:27.865Z,13.55
2022-11-17T21:28:54.728Z,14.27
2022-11-17T21:31:24.983Z,14.32
2022-11-17T21:33:54.818Z,13.38
2022-11-17T21:36:23.698Z,14.07
2022-11-17T21:38:51.811Z,14.30
2022-11-17T21:41:25.841Z,13.35
2022-11-17T21:46:24.813Z,13.15
2022-11-17T21:48:53.442Z,13.13
2022-11-17T21:51:27.877Z,15.32
2022-11-17T21:53:59.954Z,13.63
2022-11-17T21:56:28.469Z,13.70
2022-11-17T21:59:04.316Z,15.40
2022-11-17T22:01:32.797Z,14.95
2022-11-17T22:04:00.044Z,15.70
2022-11-17T22:06:27.699Z,16.23
2022-11-17T22:08:56.316Z,15.73
2022-11-17T22:11:36.015Z,14.65
2022-11-17T22:14:10.938Z,16.63
2022-11-17T22:16:44.598Z,15.52
2022-11-17T22:19:12.677Z,13.98
2022-11-17T22:21:39.926Z,15.88
2022-11-17T22:24:10.530Z,15.05
2022-11-17T22:26:40.856Z,15.23
2022-11-17T22:29:12.753Z,16.70
2022-11-17T22:31:39.549Z,15.75
2022-11-17T22:34:06.624Z,14.82
2022-11-17T22:36:33.521Z,14.13
2022-11-17T22:39:00.265Z,13.98
2022-11-17T22:41:27.032Z,14.57
2022-11-17T22:43:56.420Z,15.13
2022-11-17T22:46:27.253Z,14.38
2022-11-17T22:48:54.282Z,13.90
2022-11-17T22:51:40.619Z,14.48
2022-11-17T22:54:08.631Z,14.43
2022-11-17T22:56:36.121Z,14.30
2022-11-17T22:59:02.897Z,15.10
2022-11-17T23:01:29.627Z,14.85
2022-11-17T23:03:56.621Z,14.50
2022-11-17T23:06:24.136Z,15.13
2022-11-17T23:08:51.185Z,16.05
2022-11-17T23:14:07.872Z,14.35
2022-11-17T23:16:36.865Z,15.90
2022-11-17T23:19:05.298Z,14.75
2022-11-17T23:21:32.396Z,15.90
2022-11-17T23:23:59.257Z,15.38
2022-11-17T23:26:26.011Z,15.15
2022-11-17T23:28:52.769Z,16.35
2022-11-17T23:31:19.492Z,16.30
2022-11-17T23:33:48.030Z,16.40
2022-11-17T23:36:22.915Z,16.40
2022-11-17T23:38:51.021Z,16.73
2022-11-17T23:41:20.513Z,17.35
2022-11-17T23:43:51.947Z,16.20
2022-11-17T23:46:22.894Z,17.15
2022-11-17T23:48:49.785Z,16.48
2022-11-17T23:51:24.239Z,15.55
2022-11-17T23:53:51.781Z,15.65
2022-11-17T23:56:22.586Z,16.10
2022-11-17T23:58:50.885Z,16.17
